Time;durP1;ratioP1;P1;durP2;ratioP2;P2;SDS_P1;SDS_P2;PMS_P1;PMS_P2;Temp;Humidity;BMP_temperature;BMP_pressure;BME280_temperature;BME280_humidity;BME280_pressure;Samples;Min_cycle;Max_cycle;Signal;HPM_P1;HPM_P2
2023/06/15 00:00:18;;;;;;;;;;;;;;;16.13;52.50;96344.88;5104475;28;19949;-76
2023/06/15 00:02:43;;;;;;;;;;;;;;;16.09;53.09;96341.94;5105616;28;19960;-77
2023/06/15 00:05:09;;;;;;;;;;;;;;;16.04;52.97;96336.63;5105965;28;19955;-78
2023/06/15 00:07:35;;;;;;;;;;;;;;;16.02;53.22;96344.00;5104157;28;20206;-77
2023/06/15 00:10:01;;;;;;;;;;;;;;;16.00;52.90;96343.47;5105873;28;19956;-71
2023/06/15 00:12:27;;;;;;;;;;;;;;;15.99;53.88;96344.53;5087252;28;20023;-77
2023/06/15 00:14:53;;;;;;;;;;;;;;;15.97;54.41;96343.97;5087329;28;19959;-77
2023/06/15 00:17:19;;;;;;;;;;;;;;;15.94;53.84;96349.78;5103738;28;19965;-77
2023/06/15 00:19:45;;;;;;;;;;;;;;;15.90;53.62;96351.34;5105498;28;19978;-77
2023/06/15 00:22:15;;;;;;;;;;;;;;;15.86;54.22;96351.06;5105325;28;20151;-77
2023/06/15 00:24:41;;;;;;;;;;;;;;;15.82;53.89;96356.03;5105306;28;20244;-76
2023/06/15 00:27:08;;;;;;;;;;;;;;;15.79;54.43;96353.09;5104102;28;20147;-76
2023/06/15 00:29:34;;;;;;;;;;;;;;;15.74;53.15;96347.78;5104909;28;19946;-77
2023/06/15 00:32:00;;;;;;;;;;;;;;;15.69;55.06;96353.00;5087191;28;19993;-76
2023/06/15 00:34:25;;;;;;;;;;;;;;;15.65;54.72;96360.66;5104297;28;19958;-77
2023/06/15 00:36:51;;;;;;;;;;;;;;;15.62;55.73;96359.31;5105232;28;19961;-77
2023/06/15 00:39:18;;;;;;;;;;;;;;;15.57;54.72;96353.97;5105187;28;19975;-77
2023/06/15 00:41:44;;;;;;;;;;;;;;;15.54;54.08;96359.75;5105343;28;19963;-76
2023/06/15 00:44:10;;;;;;;;;;;;;;;15.51;55.39;96360.25;5104796;28;20017;-76
2023/06/15 00:46:36;;;;;;;;;;;;;;;15.48;55.55;96360.75;5103709;28;19962;-70
2023/06/15 00:49:02;;;;;;;;;;;;;;;15.46;55.65;96362.84;5086696;28;19963;-77
2023/06/15 00:51:28;;;;;;;;;;;;;;;15.43;55.74;96366.81;5103650;28;19964;-77
2023/06/15 00:53:54;;;;;;;;;;;;;;;15.41;56.66;96368.09;5104970;28;19954;-77
2023/06/15 00:56:20;;;;;;;;;;;;;;;15.38;54.21;96358.03;5105028;28;19958;-77
2023/06/15 00:58:47;;;;;;;;;;;;;;;15.34;56.58;96360.38;5104851;28;20229;-77
2023/06/15 01:01:13;;;;;;;;;;;;;;;15.33;56.87;96368.53;5105167;28;20150;-77
2023/06/15 01:03:40;;;;;;;;;;;;;;;15.32;56.58;96369.59;5104982;28;20026;-77
2023/06/15 01:06:13;;;;;;;;;;;;;;;15.31;56.13;96363.53;5104766;28;19983;-74
2023/06/15 01:08:47;;;;;;;;;;;;;;;15.29;56.09;96362.97;5105013;28;19955;-77
2023/06/15 01:11:16;;;;;;;;;;;;;;;15.28;55.51;96360.56;5103553;28;20234;-77
2023/06/15 01:13:43;;;;;;;;;;;;;;;15.25;56.18;96358.44;5103350;28;20147;-77
2023/06/15 01:16:14;;;;;;;;;;;;;;;15.23;56.89;96363.97;5103364;28;19955;-78
2023/06/15 01:18:46;;;;;;;;;;;;;;;15.19;55.67;96354.94;5104791;28;19964;-77
2023/06/15 01:21:13;;;;;;;;;;;;;;;15.17;56.60;96359.69;5104700;28;19957;-78
2023/06/15 01:23:41;;;;;;;;;;;;;;;15.13;56.88;96363.84;5103824;28;19942;-73
2023/06/15 01:26:08;;;;;;;;;;;;;;;15.10;56.83;96365.16;5103674;28;19978;-70
2023/06/15 01:28:35;;;;;;;;;;;;;;;15.11;57.88;96360.66;5103581;28;19963;-70
2023/06/15 01:31:01;;;;;;;;;;;;;;;15.09;57.18;96363.56;5107121;28;20154;-71
2023/06/15 01:33:27;;;;;;;;;;;;;;;15.09;57.11;96365.41;5108462;28;19952;-70
2023/06/15 01:35:53;;;;;;;;;;;;;;;15.07;57.50;96365.63;5107291;28;19962;-70
2023/06/15 01:38:21;;;;;;;;;;;;;;;15.07;57.56;96364.84;5108736;28;20083;-70
2023/06/15 01:40:49;;;;;;;;;;;;;;;15.07;57.80;96364.84;5108640;28;19959;-70
2023/06/15 01:43:17;;;;;;;;;;;;;;;15.05;57.43;96365.09;5108601;28;20271;-74
2023/06/15 01:45:43;;;;;;;;;;;;;;;15.04;58.32;96370.63;5107092;28;20273;-77
2023/06/15 01:48:10;;;;;;;;;;;;;;;15.02;57.55;96365.59;5108666;28;19957;-76
2023/06/15 01:50:36;;;;;;;;;;;;;;;15.03;57.34;96364.53;5108437;28;19939;-77
2023/06/15 01:53:02;;;;;;;;;;;;;;;15.02;57.89;96365.59;5108336;28;19958;-77
2023/06/15 01:55:28;;;;;;;;;;;;;;;14.99;57.98;96364.25;5108557;28;19955;-77
2023/06/15 01:57:54;;;;;;;;;;;;;;;14.97;58.06;96370.81;5108713;28;19958;-77
2023/06/15 02:00:21;;;;;;;;;;;;;;;14.95;57.56;96375.53;5107932;28;19952;-70
2023/06/15 02:02:47;;;;;;;;;;;;;;;14.93;57.70;96370.53;5107677;28;19963;-73
2023/06/15 02:05:13;;;;;;;;;;;;;;;14.89;57.73;96372.06;5106682;28;20002;-72
2023/06/15 02:07:40;;;;;;;;;;;;;;;14.89;58.09;96377.34;5090014;28;19959;-72
2023/06/15 02:10:06;;;;;;;;;;;;;;;14.90;58.58;96380.78;5106556;28;19958;-72
2023/06/15 02:12:32;;;;;;;;;;;;;;;14.87;58.36;96371.50;5106722;28;19961;-72
2023/06/15 02:15:01;;;;;;;;;;;;;;;14.86;58.60;96372.53;5106529;28;20001;-73
2023/06/15 02:17:30;;;;;;;;;;;;;;;14.82;58.21;96369.63;5106505;28;19958;-72
2023/06/15 02:19:56;;;;;;;;;;;;;;;14.82;58.38;96368.78;5108105;28;19938;-70
2023/06/15 02:22:22;;;;;;;;;;;;;;;14.81;58.64;96372.50;5106769;28;19956;-78
2023/06/15 02:24:48;;;;;;;;;;;;;;;14.80;58.50;96373.53;5107955;28;19958;-77
2023/06/15 02:27:15;;;;;;;;;;;;;;;14.78;58.79;96378.25;5106661;28;19961;-77
2023/06/15 02:29:41;;;;;;;;;;;;;;;14.76;58.57;96378.50;5107432;28;19970;-77
2023/06/15 02:32:08;;;;;;;;;;;;;;;14.75;58.39;96382.19;5106362;28;20268;-77
2023/06/15 02:34:36;;;;;;;;;;;;;;;14.72;58.45;96385.31;5089124;28;19970;-77
2023/06/15 02:37:02;;;;;;;;;;;;;;;14.70;58.62;96381.31;5107382;28;19960;-71
2023/06/15 02:39:28;;;;;;;;;;;;;;;14.68;58.82;96383.41;5106312;28;19958;-71
2023/06/15 02:41:54;;;;;;;;;;;;;;;14.66;58.86;96377.56;5107139;28;20210;-71
2023/06/15 02:44:21;;;;;;;;;;;;;;;14.63;59.28;96381.50;5107471;28;19960;-71
2023/06/15 02:46:47;;;;;;;;;;;;;;;14.61;59.48;96381.78;5105887;28;19964;-71
2023/06/15 02:49:12;;;;;;;;;;;;;;;14.60;59.54;96374.09;5106346;28;20184;-71
2023/06/15 02:51:39;;;;;;;;;;;;;;;14.59;59.27;96381.22;5105887;28;19958;-71
2023/06/15 02:54:08;;;;;;;;;;;;;;;14.61;59.16;96380.94;5106802;28;19956;-71
2023/06/15 02:56:36;;;;;;;;;;;;;;;14.61;59.07;96380.94;5107146;28;19960;-71
2023/06/15 02:59:01;;;;;;;;;;;;;;;14.58;59.39;96378.81;5105782;28;20159;-70
2023/06/15 03:01:38;;;;;;;;;;;;;;;14.57;59.09;96378.03;5106814;28;19976;-70
2023/06/15 03:04:09;;;;;;;;;;;;;;;14.54;59.82;96383.75;5105773;28;19957;-70
2023/06/15 03:06:36;;;;;;;;;;;;;;;14.52;61.05;96380.53;5105657;28;20168;-70
2023/06/15 03:09:03;;;;;;;;;;;;;;;14.51;59.34;96384.25;5106862;28;19952;-71
2023/06/15 03:11:28;;;;;;;;;;;;;;;14.49;60.47;96382.88;5106890;28;20249;-71
2023/06/15 03:13:54;;;;;;;;;;;;;;;14.48;59.71;96389.19;5106319;28;19945;-72
2023/06/15 03:16:20;;;;;;;;;;;;;;;14.48;60.08;96389.19;5106550;28;19988;-70
2023/06/15 03:18:47;;;;;;;;;;;;;;;14.48;59.59;96383.94;5105765;28;19960;-70
2023/06/15 03:21:14;;;;;;;;;;;;;;;14.49;59.70;96388.97;5105071;28;20150;-70
2023/06/15 03:23:42;;;;;;;;;;;;;;;14.49;59.91;96388.97;5106305;28;20151;-70
2023/06/15 03:26:08;;;;;;;;;;;;;;;14.48;60.55;96386.56;5106255;28;20161;-70
2023/06/15 03:28:37;;;;;;;;;;;;;;;14.47;60.52;96393.69;5106299;28;19949;-70
2023/06/15 03:31:05;;;;;;;;;;;;;;;14.45;60.35;96387.03;5106223;28;20244;-70
2023/06/15 03:33:31;;;;;;;;;;;;;;;14.42;60.93;96388.31;5106552;28;19960;-76
2023/06/15 03:35:57;;;;;;;;;;;;;;;14.39;60.48;96389.63;5106331;28;19952;-70
2023/06/15 03:38:23;;;;;;;;;;;;;;;14.39;60.91;96389.63;5105039;28;19949;-70
2023/06/15 03:40:49;;;;;;;;;;;;;;;14.41;61.05;96390.16;5106296;28;19960;-71
2023/06/15 03:43:15;;;;;;;;;;;;;;;14.43;60.46;96383.88;5106004;28;20097;-70
2023/06/15 03:45:41;;;;;;;;;;;;;;;14.46;60.28;96393.94;5106374;28;19984;-70
2023/06/15 03:48:07;;;;;;;;;;;;;;;14.47;60.39;96393.69;5106399;28;20009;-70
2023/06/15 03:50:33;;;;;;;;;;;;;;;14.49;60.14;96393.41;5105947;28;19958;-70
2023/06/15 03:52:59;;;;;;;;;;;;;;;14.51;60.25;96402.72;5105246;28;19955;-71
2023/06/15 03:55:26;;;;;;;;;;;;;;;14.53;60.52;96399.81;5104523;28;19963;-71
2023/06/15 03:57:51;;;;;;;;;;;;;;;14.57;60.67;96406.22;5104884;28;20148;-71
2023/06/15 04:00:18;;;;;;;;;;;;;;;14.58;60.86;96407.84;5106017;28;19959;-71
2023/06/15 04:02:44;;;;;;;;;;;;;;;14.59;61.31;96409.44;5105912;28;20134;-73
2023/06/15 04:05:10;;;;;;;;;;;;;;;14.61;62.06;96415.25;5105698;28;20036;-71
2023/06/15 04:07:36;;;;;;;;;;;;;;;14.61;61.72;96415.25;5106040;28;20132;-71
2023/06/15 04:10:03;;;;;;;;;;;;;;;14.62;61.94;96419.50;5105682;28;19958;-76
2023/06/15 04:12:29;;;;;;;;;;;;;;;14.65;62.29;96411.09;5105935;28;20213;-71
2023/06/15 04:14:55;;;;;;;;;;;;;;;14.65;62.18;96421.66;5105962;28;19976;-71
2023/06/15 04:17:21;;;;;;;;;;;;;;;14.68;62.19;96428.28;5087863;28;19981;-71
2023/06/15 04:19:47;;;;;;;;;;;;;;;14.69;62.47;96429.88;5104535;28;19963;-71
2023/06/15 04:22:12;;;;;;;;;;;;;;;14.68;62.55;96437.00;5086835;28;19964;-71
2023/06/15 04:24:38;;;;;;;;;;;;;;;14.71;63.27;96431.22;5104113;28;20250;-71
2023/06/15 04:27:05;;;;;;;;;;;;;;;14.76;62.50;96428.66;5105370;28;20004;-71
2023/06/15 04:29:31;;;;;;;;;;;;;;;14.82;62.59;96438.25;5105191;28;19950;-70
2023/06/15 04:31:57;;;;;;;;;;;;;;;14.91;62.37;96441.25;5103815;28;19973;-71
2023/06/15 04:34:24;;;;;;;;;;;;;;;15.00;62.44;96442.44;5105401;28;19954;-70
2023/06/15 04:36:50;;;;;;;;;;;;;;;15.08;63.28;96449.13;5105303;28;20112;-71
2023/06/15 04:39:16;;;;;;;;;;;;;;;15.17;62.84;96445.00;5105223;28;19950;-71
2023/06/15 04:41:42;;;;;;;;;;;;;;;15.26;62.23;96450.63;5105451;28;19935;-71
2023/06/15 04:44:08;;;;;;;;;;;;;;;15.33;63.20;96445.97;5103992;28;19970;-71
2023/06/15 04:46:39;;;;;;;;;;;;;;;15.40;62.27;96451.84;5105056;28;19955;-70
2023/06/15 04:49:06;;;;;;;;;;;;;;;15.44;61.35;96444.25;5104916;28;19953;-77
2023/06/15 04:51:32;;;;;;;;;;;;;;;15.48;61.48;96455.13;5104859;28;19949;-77
2023/06/15 04:53:58;;;;;;;;;;;;;;;15.54;61.77;96446.16;5103613;28;20040;-77
2023/06/15 04:56:24;;;;;;;;;;;;;;;15.63;60.66;96445.47;5104804;28;19950;-77
2023/06/15 04:58:50;;;;;;;;;;;;;;;15.69;60.77;96451.63;5103743;28;19962;-77
2023/06/15 05:01:17;;;;;;;;;;;;;;;15.74;61.04;96453.53;5104808;28;19960;-77
2023/06/15 05:03:43;;;;;;;;;;;;;;;15.79;60.65;96454.41;5103423;28;19980;-70
2023/06/15 05:06:09;;;;;;;;;;;;;;;15.83;61.52;96452.84;5086475;28;19972;-76
2023/06/15 05:08:35;;;;;;;;;;;;;;;15.88;60.68;96453.94;5104767;28;19952;-76
2023/06/15 05:11:01;;;;;;;;;;;;;;;15.92;61.34;96455.81;5104741;28;19937;-76
2023/06/15 05:13:28;;;;;;;;;;;;;;;16.05;62.11;96457.25;5104718;28;19969;-76
2023/06/15 05:15:54;;;;;;;;;;;;;;;16.19;60.82;96462.91;5104824;28;19957;-76
2023/06/15 05:18:20;;;;;;;;;;;;;;;16.19;60.47;96462.91;5086176;28;20308;-77
2023/06/15 05:20:46;;;;;;;;;;;;;;;16.13;61.02;96458.66;5104419;28;20124;-77
2023/06/15 05:23:12;;;;;;;;;;;;;;;16.05;60.73;96459.91;5086595;28;19987;-71
2023/06/15 05:25:38;;;;;;;;;;;;;;;15.96;60.81;96464.84;5086194;28;20264;-71
2023/06/15 05:28:04;;;;;;;;;;;;;;;15.87;59.93;96466.34;5086278;28;20054;-71
2023/06/15 05:30:30;;;;;;;;;;;;;;;15.79;61.00;96462.31;5103206;28;20025;-71
2023/06/15 05:32:56;;;;;;;;;;;;;;;15.74;60.17;96459.63;5103089;28;20016;-71
2023/06/15 05:35:22;;;;;;;;;;;;;;;15.68;61.41;96473.81;5104595;28;19961;-71
2023/06/15 05:37:48;;;;;;;;;;;;;;;15.65;61.64;96471.66;5104478;28;19988;-71
2023/06/15 05:40:14;;;;;;;;;;;;;;;15.63;60.71;96469.28;5104500;28;19960;-77
2023/06/15 05:42:43;;;;;;;;;;;;;;;15.67;61.11;96474.88;5104470;28;19960;-69
2023/06/15 05:45:09;;;;;;;;;;;;;;;15.77;60.70;96474.19;5104552;28;19952;-76
2023/06/15 05:47:35;;;;;;;;;;;;;;;15.90;60.73;96480.94;5104263;28;20145;-78
2023/06/15 05:50:01;;;;;;;;;;;;;;;16.13;60.50;96475.31;5103336;28;19953;-78
2023/06/15 05:52:27;;;;;;;;;;;;;;;16.57;59.86;96467.16;5103266;28;19952;-79
2023/06/15 05:54:53;;;;;;;;;;;;;;;17.00;59.03;96475.09;5103251;28;20140;-78
2023/06/15 05:57:19;;;;;;;;;;;;;;;17.18;57.93;96466.69;5104171;28;19960;-78
2023/06/15 05:59:47;;;;;;;;;;;;;;;17.24;57.25;96470.97;5104727;28;19950;-70
2023/06/15 06:02:13;;;;;;;;;;;;;;;17.15;57.14;96474.38;5102939;28;20026;-72
2023/06/15 06:04:39;;;;;;;;;;;;;;;17.07;57.54;96475.66;5103044;28;20031;-73
2023/06/15 06:07:06;;;;;;;;;;;;;;;17.08;58.50;96474.59;5085645;28;19973;-73
2023/06/15 06:09:33;;;;;;;;;;;;;;;17.26;57.92;96470.72;5103533;28;20257;-73
2023/06/15 06:11:59;;;;;;;;;;;;;;;17.22;57.65;96467.78;5103145;28;19968;-73
2023/06/15 06:14:25;;;;;;;;;;;;;;;17.11;57.75;96468.78;5104394;28;19952;-72
2023/06/15 06:16:51;;;;;;;;;;;;;;;17.02;58.31;96491.53;5105208;28;20022;-71
2023/06/15 06:19:17;;;;;;;;;;;;;;;16.92;59.11;96491.47;5106320;28;19955;-76
2023/06/15 06:21:43;;;;;;;;;;;;;;;16.82;59.91;96493.03;5107562;28;19961;-70
2023/06/15 06:24:09;;;;;;;;;;;;;;;16.75;60.24;96494.25;5106168;28;19956;-70
2023/06/15 06:26:35;;;;;;;;;;;;;;;16.70;60.02;96496.91;5106243;28;19968;-70
2023/06/15 06:29:01;;;;;;;;;;;;;;;16.68;60.18;96499.00;5107748;28;19957;-70
2023/06/15 06:31:27;;;;;;;;;;;;;;;16.63;59.96;96497.91;5107536;28;19964;-71
2023/06/15 06:33:53;;;;;;;;;;;;;;;16.59;60.44;96496.03;5107084;28;20202;-70
2023/06/15 06:36:19;;;;;;;;;;;;;;;16.57;60.42;96506.88;5107506;28;20007;-76
2023/06/15 06:38:45;;;;;;;;;;;;;;;16.56;60.86;96504.47;5106435;28;19965;-76
2023/06/15 06:41:11;;;;;;;;;;;;;;;16.60;60.85;96508.22;5107691;28;19964;-77
2023/06/15 06:43:36;;;;;;;;;;;;;;;16.62;60.75;96509.53;5106316;28;19955;-77
2023/06/15 06:46:03;;;;;;;;;;;;;;;16.66;60.27;96501.91;5106090;28;20023;-76
2023/06/15 06:48:28;;;;;;;;;;;;;;;16.78;59.70;96499.06;5107466;28;19963;-76
2023/06/15 06:50:54;;;;;;;;;;;;;;;17.09;58.69;96496.59;5106054;28;19960;-78
2023/06/15 06:53:21;;;;;;;;;;;;;;;17.61;57.84;96498.38;5105808;28;20034;-77
2023/06/15 06:55:48;;;;;;;;;;;;;;;18.16;56.39;96488.13;5105690;28;19960;-73
2023/06/15 06:58:14;;;;;;;;;;;;;;;18.72;56.31;96487.31;5106963;28;19952;-78
2023/06/15 07:00:40;;;;;;;;;;;;;;;19.10;54.07;96477.13;5105731;28;19954;-78
2023/06/15 07:03:06;;;;;;;;;;;;;;;19.40;52.76;96485.00;5106495;28;19956;-79
2023/06/15 07:05:31;;;;;;;;;;;;;;;19.67;52.23;96478.47;5106910;28;19950;-79
2023/06/15 07:07:58;;;;;;;;;;;;;;;19.87;51.97;96483.69;5106388;28;19975;-78
2023/06/15 07:10:24;;;;;;;;;;;;;;;20.13;51.73;96485.38;5106787;28;19956;-78
2023/06/15 07:12:54;;;;;;;;;;;;;;;20.40;50.52;96477.69;5107178;28;19971;-71
2023/06/15 07:15:21;;;;;;;;;;;;;;;20.70;50.48;96485.72;5106486;28;19967;-78
2023/06/15 07:17:47;;;;;;;;;;;;;;;20.81;49.41;96472.00;5105164;28;20116;-72
2023/06/15 07:20:13;;;;;;;;;;;;;;;20.96;49.92;96483.59;5106696;28;19962;-71
2023/06/15 07:22:39;;;;;;;;;;;;;;;21.15;50.08;96476.44;5106012;28;19966;-71
2023/06/15 07:25:04;;;;;;;;;;;;;;;21.35;49.09;96474.59;5088238;28;19960;-71
2023/06/15 07:27:30;;;;;;;;;;;;;;;21.50;48.77;96469.09;5105156;28;19958;-72
2023/06/15 07:29:56;;;;;;;;;;;;;;;21.64;48.51;96477.19;5106494;28;19996;-71
2023/06/15 07:32:22;;;;;;;;;;;;;;;21.61;48.05;96473.22;5106377;28;20030;-72
2023/06/15 07:34:48;;;;;;;;;;;;;;;21.68;47.78;96467.50;5109974;28;19964;-78
2023/06/15 07:37:14;;;;;;;;;;;;;;;21.78;47.97;96472.72;5114253;28;19960;-78
2023/06/15 07:39:40;;;;;;;;;;;;;;;21.94;47.14;96475.16;5113851;28;19969;-78
2023/06/15 07:42:06;;;;;;;;;;;;;;;22.04;47.53;96467.78;5095210;28;19964;-79
2023/06/15 07:44:32;;;;;;;;;;;;;;;22.07;47.03;96469.88;5110454;28;19962;-78
2023/06/15 07:46:58;;;;;;;;;;;;;;;22.10;46.26;96471.94;5111215;28;20044;-79
2023/06/15 07:49:24;;;;;;;;;;;;;;;22.16;47.29;96474.56;5109909;28;20053;-71
2023/06/15 07:51:50;;;;;;;;;;;;;;;22.30;47.40;96472.75;5106625;28;20124;-79
2023/06/15 07:54:16;;;;;;;;;;;;;;;22.39;44.81;96468.31;5105870;28;19969;-76
2023/06/15 07:56:44;;;;;;;;;;;;;;;22.51;46.35;96475.88;5107152;28;19954;-76
2023/06/15 07:59:10;;;;;;;;;;;;;;;22.56;44.65;96465.09;5106695;28;19955;-77
2023/06/15 08:01:36;;;;;;;;;;;;;;;22.58;45.89;96472.81;5105845;28;20215;-76
2023/06/15 08:04:02;;;;;;;;;;;;;;;22.70;43.54;96467.81;5105857;28;19960;-77
2023/06/15 08:06:28;;;;;;;;;;;;;;;22.81;45.89;96469.19;5104089;28;20132;-77
2023/06/15 08:08:54;;;;;;;;;;;;;;;22.93;45.29;96459.88;5104807;28;19970;-77
2023/06/15 08:11:20;;;;;;;;;;;;;;;23.01;45.18;96461.88;5105069;28;19954;-73
2023/06/15 08:13:46;;;;;;;;;;;;;;;23.18;44.04;96462.09;5087643;28;19964;-73
2023/06/15 08:16:12;;;;;;;;;;;;;;;23.33;44.80;96461.00;5104535;28;19959;-73
2023/06/15 08:18:38;;;;;;;;;;;;;;;23.46;43.96;96468.19;5103907;28;19963;-73
2023/06/15 08:21:04;;;;;;;;;;;;;;;23.59;44.02;96463.13;5103865;28;19966;-73
2023/06/15 08:23:30;;;;;;;;;;;;;;;23.73;44.06;96463.06;5105458;28;19960;-74
2023/06/15 08:25:56;;;;;;;;;;;;;;;23.87;43.45;96461.16;5105207;28;19962;-71
2023/06/15 08:28:22;;;;;;;;;;;;;;;23.99;42.92;96461.44;5105540;28;20287;-70
2023/06/15 08:30:47;;;;;;;;;;;;;;;24.12;42.94;96465.13;5103869;28;20334;-72
2023/06/15 08:33:13;;;;;;;;;;;;;;;24.24;42.32;96469.97;5105296;28;19959;-72
2023/06/15 08:35:39;;;;;;;;;;;;;;;24.31;39.21;96465.72;5105285;28;19951;-72
2023/06/15 08:38:05;;;;;;;;;;;;;;;24.36;41.28;96469.38;5105198;28;19940;-72
2023/06/15 08:40:31;;;;;;;;;;;;;;;24.44;39.99;96474.00;5105291;28;19960;-72
2023/06/15 08:42:58;;;;;;;;;;;;;;;24.59;41.55;96472.88;5103977;28;19956;-72
2023/06/15 08:45:29;;;;;;;;;;;;;;;24.62;40.04;96478.41;5086638;28;20246;-76
2023/06/15 08:47:57;;;;;;;;;;;;;;;24.61;38.36;96473.34;5105040;28;19973;-77
2023/06/15 08:50:23;;;;;;;;;;;;;;;24.58;39.72;96468.63;5105132;28;19969;-76
2023/06/15 08:52:50;;;;;;;;;;;;;;;24.68;39.91;96474.50;5103680;28;19953;-76
2023/06/15 08:55:17;;;;;;;;;;;;;;;24.85;38.97;96471.09;5104836;28;19953;-76
2023/06/15 08:57:43;;;;;;;;;;;;;;;25.00;39.83;96480.63;5105025;28;20015;-76
2023/06/15 09:00:09;;;;;;;;;;;;;;;25.10;39.02;96476.88;5104892;28;19956;-77
2023/06/15 09:02:40;;;;;;;;;;;;;;;25.21;38.43;96478.19;5104323;28;19961;-78
2023/06/15 09:05:06;;;;;;;;;;;;;;;25.36;37.80;96468.13;5104800;28;20232;-72
2023/06/15 09:07:32;;;;;;;;;;;;;;;25.33;38.89;96469.56;5104995;28;19968;-72
2023/06/15 09:10:10;;;;;;;;;;;;;;;24.93;37.68;96466.88;5103209;28;19961;-72
2023/06/15 09:12:45;;;;;;;;;;;;;;;24.50;38.15;96472.81;5103590;28;19964;-72
2023/06/15 09:15:17;;;;;;;;;;;;;;;24.22;38.58;96475.63;5104881;28;19974;-72
2023/06/15 09:17:43;;;;;;;;;;;;;;;24.00;39.52;96475.59;5104855;28;19957;-71
2023/06/15 09:20:09;;;;;;;;;;;;;;;23.79;39.62;96478.78;5104717;28;19953;-71
2023/06/15 09:22:39;;;;;;;;;;;;;;;23.60;39.33;96475.41;5104183;28;19951;-71
2023/06/15 09:25:12;;;;;;;;;;;;;;;23.40;40.35;96482.78;5104616;28;19959;-73
2023/06/15 09:27:38;;;;;;;;;;;;;;;23.26;39.82;96479.31;5103637;28;19983;-74
2023/06/15 09:30:05;;;;;;;;;;;;;;;23.16;39.57;96483.00;5086809;28;19952;-75
2023/06/15 09:32:31;;;;;;;;;;;;;;;23.06;40.00;96484.00;5103222;28;19991;-74
2023/06/15 09:35:00;;;;;;;;;;;;;;;23.00;39.89;96479.78;5103041;28;20167;-74
2023/06/15 09:37:27;;;;;;;;;;;;;;;22.93;40.02;96490.09;5103361;28;19965;-73
2023/06/15 09:39:53;;;;;;;;;;;;;;;22.84;40.01;96479.28;5103238;28;20123;-71
2023/06/15 09:42:26;;;;;;;;;;;;;;;22.78;40.33;96477.78;5103004;28;19957;-78
2023/06/15 09:44:57;;;;;;;;;;;;;;;22.72;39.79;96487.00;5102400;28;20264;-76
2023/06/15 09:47:27;;;;;;;;;;;;;;;22.69;40.11;96482.25;5102962;28;19971;-75
2023/06/15 09:49:53;;;;;;;;;;;;;;;22.67;39.15;96489.75;5103887;28;19970;-76
2023/06/15 09:52:18;;;;;;;;;;;;;;;22.57;38.95;96493.38;5106658;28;20128;-77
2023/06/15 09:54:45;;;;;;;;;;;;;;;22.56;40.42;96489.16;5108175;28;19959;-77
2023/06/15 09:57:11;;;;;;;;;;;;;;;22.57;38.48;96487.25;5108545;28;20115;-76
2023/06/15 09:59:37;;;;;;;;;;;;;;;22.53;38.52;96486.25;5108488;28;20233;-77
2023/06/15 10:02:04;;;;;;;;;;;;;;;22.50;38.47;96495.66;5108266;28;19979;-72
2023/06/15 10:04:31;;;;;;;;;;;;;;;22.43;37.92;96496.03;5107904;28;19970;-72
2023/06/15 10:07:00;;;;;;;;;;;;;;;22.37;36.19;96489.19;5106538;28;19965;-72
2023/06/15 10:09:29;;;;;;;;;;;;;;;22.48;37.18;96484.47;5106833;28;19967;-71
2023/06/15 10:11:57;;;;;;;;;;;;;;;22.52;37.67;96493.50;5106338;28;19957;-71
2023/06/15 10:14:27;;;;;;;;;;;;;;;22.54;35.76;96498.56;5106552;28;19962;-71
2023/06/15 10:16:57;;;;;;;;;;;;;;;22.50;35.84;96490.31;5089612;28;20287;-71
2023/06/15 10:19:25;;;;;;;;;;;;;;;22.52;36.29;96488.16;5106937;28;19950;-77
2023/06/15 10:21:51;;;;;;;;;;;;;;;22.71;36.47;96485.41;5106781;28;19979;-72
2023/06/15 10:24:19;;;;;;;;;;;;;;;23.00;36.28;96481.69;5107785;28;20137;-71
2023/06/15 10:26:45;;;;;;;;;;;;;;;23.37;36.63;96480.72;5089769;28;19980;-71
2023/06/15 10:29:18;;;;;;;;;;;;;;;23.59;34.52;96481.88;5089559;28;19994;-72
2023/06/15 10:32:02;;;;;;;;;;;;;;;23.89;35.60;96483.09;5107001;28;19962;-71
2023/06/15 10:34:34;;;;;;;;;;;;;;;24.33;35.61;96478.84;5107639;28;20131;-73
2023/06/15 10:37:18;;;;;;;;;;;;;;;24.50;36.12;96478.97;5089407;28;19966;-71
2023/06/15 10:39:46;;;;;;;;;;;;;;;24.38;35.21;96475.25;5107749;28;20033;-73
2023/06/15 10:42:13;;;;;;;;;;;;;;;24.21;35.87;96487.44;5089587;28;20141;-74
2023/06/15 10:44:40;;;;;;;;;;;;;;;24.08;35.97;96489.06;5106258;28;19965;-73
2023/06/15 10:47:10;;;;;;;;;;;;;;;23.94;36.21;96485.66;5088839;28;20285;-74
2023/06/15 10:49:36;;;;;;;;;;;;;;;23.84;36.40;96485.91;5106136;28;19971;-73
2023/06/15 10:52:06;;;;;;;;;;;;;;;23.76;36.00;96487.41;5106878;28;19951;-73
2023/06/15 10:54:35;;;;;;;;;;;;;;;23.71;36.39;96490.16;5088762;28;20013;-77
2023/06/15 10:57:01;;;;;;;;;;;;;;;23.71;36.83;96488.28;5107140;28;19954;-80
2023/06/15 10:59:41;;;;;;;;;;;;;;;23.69;36.27;96487.00;5105783;28;20219;-80
2023/06/15 11:02:25;;;;;;;;;;;;;;;23.70;36.58;96493.94;5088964;28;19947;-81
2023/06/15 11:04:52;;;;;;;;;;;;;;;23.75;35.57;96491.16;5105540;28;19956;-81
2023/06/15 11:07:27;;;;;;;;;;;;;;;23.82;36.23;96485.41;5105789;28;19962;-81
2023/06/15 11:09:56;;;;;;;;;;;;;;;24.01;34.66;96486.03;5105358;28;20154;-81
2023/06/15 11:12:32;;;;;;;;;;;;;;;24.44;35.51;96484.72;5105427;28;19947;-77
2023/06/15 11:15:00;;;;;;;;;;;;;;;24.89;34.54;96479.34;5105329;28;19959;-76
2023/06/15 11:17:27;;;;;;;;;;;;;;;24.98;34.80;96484.72;5105463;28;19956;-76
2023/06/15 11:19:52;;;;;;;;;;;;;;;24.78;34.76;96473.44;5105364;28;19958;-76
2023/06/15 11:22:27;;;;;;;;;;;;;;;24.59;34.42;96475.53;5105717;28;19950;-77
2023/06/15 11:24:54;;;;;;;;;;;;;;;24.41;34.85;96478.09;5106702;28;19957;-76
2023/06/15 11:27:22;;;;;;;;;;;;;;;24.23;34.90;96479.91;5106173;28;19970;-77
2023/06/15 11:29:55;;;;;;;;;;;;;;;24.14;34.38;96480.91;5106548;28;20136;-77
2023/06/15 11:32:25;;;;;;;;;;;;;;;24.34;34.34;96474.25;5088182;28;20056;-80
2023/06/15 11:34:55;;;;;;;;;;;;;;;24.77;34.62;96469.19;5106264;28;19964;-73
2023/06/15 11:37:22;;;;;;;;;;;;;;;25.20;33.91;96468.59;5106259;28;19978;-72
2023/06/15 11:39:48;;;;;;;;;;;;;;;25.55;33.24;96460.59;5104987;28;19958;-72
2023/06/15 11:42:15;;;;;;;;;;;;;;;25.79;30.60;96462.03;5105774;28;19960;-73
2023/06/15 11:44:41;;;;;;;;;;;;;;;25.80;29.68;96460.94;5106231;28;19964;-73
2023/06/15 11:47:09;;;;;;;;;;;;;;;25.86;31.35;96457.75;5106153;28;19955;-73
2023/06/15 11:49:35;;;;;;;;;;;;;;;26.01;31.68;96456.53;5106186;28;20239;-73
2023/06/15 11:52:02;;;;;;;;;;;;;;;26.18;31.99;96463.78;5104899;28;19975;-73
2023/06/15 11:54:28;;;;;;;;;;;;;;;26.43;30.35;96454.09;5087581;28;19966;-73
2023/06/15 11:56:57;;;;;;;;;;;;;;;26.70;31.77;96460.22;5087480;28;19963;-73
2023/06/15 11:59:23;;;;;;;;;;;;;;;26.96;30.68;96453.94;5087828;28;19961;-73
2023/06/15 12:01:49;;;;;;;;;;;;;;;27.25;30.66;96447.81;5087421;28;19954;-73
2023/06/15 12:04:15;;;;;;;;;;;;;;;27.34;27.83;96453.94;5105677;28;19969;-73
2023/06/15 12:06:48;;;;;;;;;;;;;;;27.28;26.09;96445.25;5104440;28;20004;-78
2023/06/15 12:09:18;;;;;;;;;;;;;;;26.71;28.98;96451.84;5104314;28;19967;-77
2023/06/15 12:11:45;;;;;;;;;;;;;;;26.11;28.54;96447.34;5104304;28;19961;-79
2023/06/15 12:14:20;;;;;;;;;;;;;;;26.05;30.41;96454.78;5104056;28;20044;-79
2023/06/15 12:16:53;;;;;;;;;;;;;;;26.36;30.50;96459.16;5087703;28;20242;-78
2023/06/15 12:19:20;;;;;;;;;;;;;;;26.80;30.72;96453.69;5104461;28;19966;-79
2023/06/15 12:21:46;;;;;;;;;;;;;;;27.18;29.83;96448.28;5087320;28;20141;-77
2023/06/15 12:24:13;;;;;;;;;;;;;;;27.28;25.89;96437.19;5103947;28;19979;-78
2023/06/15 12:26:39;;;;;;;;;;;;;;;27.35;28.31;96439.34;5105186;28;20256;-77
2023/06/15 12:29:15;;;;;;;;;;;;;;;27.56;28.04;96441.28;5105381;28;19966;-71
2023/06/15 12:31:43;;;;;;;;;;;;;;;27.51;28.21;96440.34;5103907;28;19963;-71
2023/06/15 12:34:09;;;;;;;;;;;;;;;27.29;28.08;96436.03;5103875;28;20144;-71
2023/06/15 12:36:39;;;;;;;;;;;;;;;26.90;28.67;96437.97;5104741;28;19958;-72
2023/06/15 12:39:09;;;;;;;;;;;;;;;26.61;28.94;96435.25;5105496;28;19948;-71
2023/06/15 12:41:39;;;;;;;;;;;;;;;26.36;29.50;96445.72;5104040;28;19966;-71
2023/06/15 12:44:06;;;;;;;;;;;;;;;26.25;29.17;96439.13;5105111;28;20168;-76
2023/06/15 12:46:35;;;;;;;;;;;;;;;26.16;30.83;96441.00;5086688;28;19964;-71